Portada
METAR-TAF:

METAR-TAF

Aeropuertos :

Carcasona, Francia

latitud: 43-13N, longitud: 002-19E, altitud: 130 m

Observación

El informe se hizo hace 31 minutos, a las 22:30 UTC
Viento 6 kt del este, variando entre este-noreste y sureste
Temperatura 7°C
Humedad 93%
Presión 1018 hPa
Visibilidad: 7000 m
Cielo cubierto a una altura de 1000 ft

METAR: LFMK 152230Z AUTO 09006KT 070V130 7000 OVC010 07/06 Q1018

Hora: 00:01 (23:01 UTC)

Pronóstico

El informe se hizo hace 5 horas y 17 minutos, a las 17:44 UTC
Pronóstico válido del 15 a las 17 UTC al 16 a las 15 UTC
Viento 4 kt con dirección variable
Visibilidad 10 km o más
Cielo cubierto a una altura de 6200 ft
Temporalmente
del 15 a las 17 UTC al 16 a las 15 UTC
Visibilidad: 8000 m
Cielo cubierto a una altura de 1000 ft
lluvia
Temporalmente
del 15 a las 20 UTC al 15 a las 24 UTC
Viento 10 kt del este

TAF: LFMK 151744Z 1517/1615 VRB04KT 9999 OVC062 TEMPO 1517/1615 8000 RA OVC010 TEMPO 1520/1524 09010KT

Observaciones y pronósticos meteorológicos de más de 4000 aeropuertos (mensajes METAR y TAF).

Los puntos amarillos y rojos representan las estaciones disponibles.

Ponga el ratón en el punto deseado para ver el nombre de la estación.

Haga clic para ver las observaciones y los pronósticos meteorológicos.

Para cambiar el mapa : haga clic en los botones verdes con una cruz de color negro para hacer un zoom, en el botón verde con un guión para alejar o en las flechas verdes para mapas adyacentes.


METAR-TAF: